Time;durP1;ratioP1;P1;durP2;ratioP2;P2;SDS_P1;SDS_P2;PMS_P1;PMS_P2;Temp;Humidity;BMP_temperature;BMP_pressure;BME280_temperature;BME280_humidity;BME280_pressure;Samples;Min_cycle;Max_cycle;Signal;HPM_P1;HPM_P2
2021/12/02 00:02:10;;;;;;;5.82;1.52;;;3.20;99.90;;;;;;4883335;29;20132;-66
2021/12/02 00:04:38;;;;;;;5.78;1.42;;;3.20;99.90;;;;;;4882131;29;20128;-67
2021/12/02 00:07:05;;;;;;;5.55;1.55;;;3.20;99.90;;;;;;4900112;29;20048;-69
2021/12/02 00:09:32;;;;;;;7.57;1.40;;;3.10;99.90;;;;;;4882672;29;20159;-68
2021/12/02 00:11:57;;;;;;;9.00;1.75;;;3.20;99.90;;;;;;4882866;29;20049;-69
2021/12/02 00:14:25;;;;;;;6.60;1.45;;;3.20;99.90;;;;;;4882572;29;20124;-68
2021/12/02 00:22:11;;;;;;;5.45;1.30;;;3.10;99.90;;;;;;4899519;29;20065;-67
2021/12/02 00:24:40;;;;;;;7.20;1.70;;;3.10;99.90;;;;;;4882177;29;20124;-69
2021/12/02 00:27:10;;;;;;;9.80;1.27;;;3.10;99.90;;;;;;4883026;29;20062;-69
2021/12/02 00:29:37;;;;;;;7.50;1.52;;;3.10;99.90;;;;;;4899009;29;20072;-67
2021/12/02 00:32:06;;;;;;;5.85;1.45;;;3.20;99.90;;;;;;4899854;29;20123;-68
2021/12/02 00:34:32;;;;;;;6.25;2.17;;;3.20;99.90;;;;;;4897657;29;20057;-69
2021/12/02 00:37:00;;;;;;;5.90;1.60;;;3.20;99.90;;;;;;4882458;29;20053;-68
2021/12/02 00:39:29;;;;;;;6.22;1.13;;;3.20;99.90;;;;;;4898460;29;20044;-69
2021/12/02 00:41:55;;;;;;;8.60;1.70;;;3.30;99.90;;;;;;4899012;29;20100;-68
2021/12/02 00:44:21;;;;;;;5.40;1.60;;;3.30;99.90;;;;;;4881584;29;20548;-68
2021/12/02 00:46:47;;;;;;;4.68;1.50;;;3.30;99.90;;;;;;4882141;29;20088;-68
2021/12/02 00:49:17;;;;;;;4.68;1.20;;;3.30;99.90;;;;;;4882336;29;20060;-67
2021/12/02 00:51:46;;;;;;;4.30;1.50;;;3.20;99.90;;;;;;4898953;29;20091;-69
2021/12/02 00:54:12;;;;;;;5.38;1.55;;;3.20;99.90;;;;;;4882212;29;20053;-69
2021/12/02 00:56:39;;;;;;;3.22;1.08;;;3.30;99.90;;;;;;4881838;29;20056;-69
2021/12/02 00:59:05;;;;;;;9.20;1.55;;;3.10;99.90;;;;;;4881916;29;20060;-66
2021/12/02 01:01:35;;;;;;;6.47;1.35;;;3.10;99.90;;;;;;4881295;29;20056;-69
2021/12/02 01:04:06;;;;;;;3.03;0.98;;;3.10;99.90;;;;;;4886514;29;20044;-68
2021/12/02 01:06:32;;;;;;;6.75;1.50;;;3.00;99.90;;;;;;4892684;29;20059;-68
2021/12/02 01:08:58;;;;;;;4.88;1.40;;;3.10;99.90;;;;;;4881897;29;20060;-68
2021/12/02 01:11:24;;;;;;;4.70;1.73;;;3.00;99.90;;;;;;4897466;29;20053;-69
2021/12/02 01:13:49;;;;;;;5.10;1.40;;;3.00;99.90;;;;;;4878771;29;20056;-67
2021/12/02 01:16:17;;;;;;;5.75;1.17;;;3.00;99.90;;;;;;4893365;29;20131;-68
2021/12/02 01:18:43;;;;;;;5.93;1.25;;;3.00;99.90;;;;;;4881381;29;20057;-67
2021/12/02 01:21:18;;;;;;;6.10;1.20;;;3.00;99.90;;;;;;4881406;29;20085;-66
2021/12/02 01:23:47;;;;;;;7.95;1.52;;;3.10;99.90;;;;;;4881770;29;20049;-68
2021/12/02 01:26:16;;;;;;;3.25;1.10;;;3.10;99.90;;;;;;4898490;29;20053;-67
2021/12/02 01:28:43;;;;;;;4.85;1.30;;;3.00;99.90;;;;;;4880718;29;20470;-68
2021/12/02 01:31:11;;;;;;;7.43;1.50;;;3.10;99.90;;;;;;4898492;29;20114;-69
2021/12/02 01:33:38;;;;;;;4.75;1.00;;;3.00;99.90;;;;;;4898334;29;20112;-69
2021/12/02 01:36:05;;;;;;;2.92;1.40;;;3.00;99.90;;;;;;4897253;29;20084;-67
2021/12/02 01:38:32;;;;;;;4.80;1.15;;;3.00;99.90;;;;;;4898667;29;20123;-67
2021/12/02 01:40:59;;;;;;;4.00;0.98;;;3.10;99.90;;;;;;4896036;29;20040;-68
2021/12/02 01:43:44;;;;;;;2.83;1.05;;;3.10;99.90;;;;;;4897482;29;20052;-66
2021/12/02 01:46:10;;;;;;;5.82;1.42;;;3.00;99.90;;;;;;4881209;29;20119;-68
2021/12/02 01:48:39;;;;;;;4.53;1.13;;;3.00;99.90;;;;;;4897336;29;20050;-68
2021/12/02 01:51:06;;;;;;;4.25;0.98;;;3.10;99.90;;;;;;4897697;29;20565;-67
2021/12/02 01:53:34;;;;;;;4.07;1.00;;;3.10;99.90;;;;;;4880748;29;20053;-69
2021/12/02 01:56:10;;;;;;;2.30;0.82;;;3.20;99.90;;;;;;4874682;29;20049;-67
2021/12/02 01:59:09;;;;;;;3.03;0.90;;;3.20;99.90;;;;;;4898132;29;20091;-68
2021/12/02 02:01:37;;;;;;;5.03;0.85;;;3.20;99.90;;;;;;4869881;29;20064;-67
2021/12/02 02:04:03;;;;;;;3.72;1.67;;;3.30;99.90;;;;;;4881111;29;20087;-68
2021/12/02 02:06:56;;;;;;;4.93;1.00;;;3.30;99.90;;;;;;4897758;29;20048;-67
2021/12/02 02:09:24;;;;;;;9.73;1.38;;;3.20;99.90;;;;;;4891567;29;20524;-67
2021/12/02 02:11:50;;;;;;;6.13;1.15;;;3.20;99.90;;;;;;4881035;29;20520;-67
2021/12/02 02:14:16;;;;;;;4.93;1.20;;;3.10;99.90;;;;;;4898226;29;20058;-66
2021/12/02 02:16:42;;;;;;;4.03;1.05;;;3.10;99.90;;;;;;4880902;29;20059;-68
2021/12/02 02:19:11;;;;;;;4.30;0.75;;;2.90;99.90;;;;;;4880790;29;20485;-71
2021/12/02 02:21:37;;;;;;;3.72;1.00;;;2.80;99.90;;;;;;4897450;29;20159;-67
2021/12/02 02:24:04;;;;;;;1.83;1.13;;;2.70;99.90;;;;;;4881419;29;20049;-68
2021/12/02 02:26:35;;;;;;;4.65;1.00;;;2.80;99.90;;;;;;4880345;29;20053;-68
2021/12/02 02:29:03;;;;;;;2.78;0.85;;;2.70;99.90;;;;;;4880804;29;20452;-68
2021/12/02 02:31:29;;;;;;;2.47;0.60;;;2.70;99.90;;;;;;4881950;29;20132;-69
2021/12/02 02:33:55;;;;;;;3.33;1.77;;;2.60;99.90;;;;;;4902055;29;20135;-69
2021/12/02 02:36:24;;;;;;;2.20;1.00;;;2.60;99.90;;;;;;4883183;29;20131;-68
2021/12/02 02:38:59;;;;;;;1.25;0.90;;;2.50;99.90;;;;;;4901492;29;20056;-67
2021/12/02 02:41:36;;;;;;;1.15;0.65;;;2.50;99.90;;;;;;4884271;29;20048;-68
2021/12/02 02:44:03;;;;;;;4.43;0.82;;;2.40;99.90;;;;;;4901737;29;20044;-69
2021/12/02 02:46:31;;;;;;;2.33;0.57;;;2.40;99.90;;;;;;4901037;29;20099;-66
2021/12/02 02:49:00;;;;;;;3.83;0.80;;;2.30;99.90;;;;;;4901140;29;20127;-68
2021/12/02 02:51:26;;;;;;;3.00;0.93;;;2.30;99.90;;;;;;4894615;29;20125;-69
2021/12/02 02:53:55;;;;;;;1.50;0.80;;;2.40;99.90;;;;;;4913377;29;20060;-68
2021/12/02 02:56:22;;;;;;;4.20;0.80;;;2.40;99.90;;;;;;4883992;29;20048;-67
2021/12/02 03:02:00;;;;;;;1.55;0.75;;;2.40;99.90;;;;;;4878485;29;20056;-67
2021/12/02 03:04:44;;;;;;;2.08;0.75;;;2.40;99.90;;;;;;4881338;29;20382;-67
2021/12/02 03:07:35;;;;;;;2.45;0.80;;;2.30;99.90;;;;;;4884125;29;20489;-68
2021/12/02 03:12:36;;;;;;;5.80;1.33;;;2.30;99.90;;;;;;4884458;29;20056;-72
2021/12/02 03:17:29;;;;;;;1.85;0.70;;;2.20;99.90;;;;;;4883896;29;20052;-70
2021/12/02 03:19:54;;;;;;;1.38;0.85;;;2.10;99.90;;;;;;4883613;29;20155;-68
2021/12/02 03:22:20;;;;;;;1.33;0.60;;;2.10;99.90;;;;;;4899491;29;20166;-69
2021/12/02 03:24:46;;;;;;;1.98;0.60;;;2.20;99.90;;;;;;4900025;29;20060;-66
2021/12/02 03:27:12;;;;;;;2.15;0.80;;;2.00;99.90;;;;;;4900475;29;20053;-68
2021/12/02 03:29:39;;;;;;;2.70;0.82;;;1.90;99.90;;;;;;4899822;29;20535;-67
2021/12/02 03:32:05;;;;;;;3.92;0.82;;;1.90;99.90;;;;;;4900647;29;20053;-68
2021/12/02 03:34:32;;;;;;;4.45;1.00;;;1.90;99.90;;;;;;4899258;29;20103;-67
2021/12/02 03:36:58;;;;;;;3.03;0.82;;;1.80;99.90;;;;;;4884142;29;20079;-69
2021/12/02 03:39:25;;;;;;;4.43;0.82;;;1.80;99.90;;;;;;4884720;29;20056;-66
2021/12/02 03:41:52;;;;;;;0.77;0.60;;;1.70;99.90;;;;;;4887806;29;20053;-68
2021/12/02 03:44:18;;;;;;;4.47;1.00;;;1.70;99.90;;;;;;4900367;29;20060;-71
2021/12/02 03:46:43;;;;;;;2.45;1.08;;;1.60;99.90;;;;;;4899780;29;20566;-68
2021/12/02 03:49:09;;;;;;;2.38;0.65;;;1.60;99.90;;;;;;4883036;29;20117;-68
2021/12/02 03:51:35;;;;;;;3.47;0.80;;;1.60;99.90;;;;;;4898248;29;20055;-67
2021/12/02 03:54:00;;;;;;;3.55;1.13;;;1.60;99.90;;;;;;4899498;29;20049;-69
2021/12/02 03:56:26;;;;;;;3.17;0.80;;;1.60;99.90;;;;;;4882938;29;20045;-67
2021/12/02 03:58:52;;;;;;;3.72;1.00;;;1.60;99.90;;;;;;4882839;29;20072;-68
2021/12/02 04:01:19;;;;;;;3.92;0.98;;;1.60;99.90;;;;;;4865378;29;20379;-68
2021/12/02 04:03:46;;;;;;;3.15;1.08;;;1.70;99.90;;;;;;4864962;29;20121;-68
2021/12/02 04:06:12;;;;;;;5.13;1.00;;;1.70;99.90;;;;;;4863628;29;20056;-66
2021/12/02 04:11:23;;;;;;;6.65;1.10;;;1.90;99.90;;;;;;4881395;29;20121;-68
2021/12/02 04:16:22;;;;;;;2.53;0.57;;;1.90;99.90;;;;;;4881322;29;20340;-69
2021/12/02 04:18:48;;;;;;;1.98;0.75;;;1.90;99.90;;;;;;4864052;29;20057;-68
2021/12/02 04:21:14;;;;;;;3.70;0.80;;;1.90;99.90;;;;;;4880231;29;20056;-67
2021/12/02 04:23:40;;;;;;;4.60;0.93;;;1.90;99.90;;;;;;4880077;29;20057;-67
2021/12/02 04:26:06;;;;;;;2.22;1.20;;;1.90;99.90;;;;;;4881048;29;20120;-67
2021/12/02 04:28:32;;;;;;;2.03;0.60;;;1.90;99.90;;;;;;4879315;29;20057;-69
2021/12/02 04:30:57;;;;;;;3.78;0.80;;;1.90;99.90;;;;;;4880416;29;20057;-68
2021/12/02 04:33:23;;;;;;;2.30;0.80;;;1.80;99.90;;;;;;4880730;29;20123;-68
2021/12/02 04:35:49;;;;;;;3.35;0.73;;;1.80;99.90;;;;;;4863650;29;20084;-69
2021/12/02 04:38:15;;;;;;;1.75;0.70;;;1.80;99.90;;;;;;4880826;29;20069;-68
2021/12/02 04:40:41;;;;;;;3.35;0.80;;;1.70;99.90;;;;;;4878700;29;20104;-69
2021/12/02 04:43:08;;;;;;;1.60;0.50;;;1.70;99.90;;;;;;4864396;29;20056;-70
2021/12/02 04:45:34;;;;;;;3.63;1.02;;;1.70;99.90;;;;;;4863796;29;20135;-66
2021/12/02 04:48:00;;;;;;;4.35;0.80;;;1.60;99.90;;;;;;4878586;29;20088;-67
2021/12/02 04:50:26;;;;;;;2.90;0.70;;;1.60;99.90;;;;;;4863713;29;20084;-67
2021/12/02 04:52:53;;;;;;;2.45;0.90;;;1.60;99.90;;;;;;4879220;29;20092;-66
2021/12/02 04:55:19;;;;;;;0.77;0.60;;;1.70;99.90;;;;;;4879465;29;20509;-67
2021/12/02 04:57:45;;;;;;;3.97;0.65;;;1.50;99.90;;;;;;4880509;29;20077;-70
2021/12/02 05:00:11;;;;;;;3.10;0.77;;;1.50;99.90;;;;;;4868757;29;20132;-65
2021/12/02 05:02:39;;;;;;;2.55;0.80;;;1.50;99.90;;;;;;4878828;29;20053;-67
2021/12/02 05:05:06;;;;;;;2.55;0.80;;;1.60;99.90;;;;;;4865814;29;20379;-68
2021/12/02 05:07:32;;;;;;;2.63;1.00;;;1.60;99.90;;;;;;4882002;29;20152;-70
2021/12/02 05:09:57;;;;;;;0.95;0.63;;;1.70;99.90;;;;;;4899112;29;20140;-67
2021/12/02 05:12:23;;;;;;;2.55;0.88;;;1.60;99.90;;;;;;4897973;29;20059;-67
2021/12/02 05:14:48;;;;;;;3.10;1.10;;;1.70;99.90;;;;;;4898242;29;20116;-69
2021/12/02 05:17:14;;;;;;;2.38;0.95;;;1.60;99.90;;;;;;4899156;29;20472;-71
2021/12/02 05:19:40;;;;;;;3.45;0.88;;;1.50;99.90;;;;;;4881362;29;20095;-67
2021/12/02 05:22:05;;;;;;;1.85;0.70;;;1.50;99.90;;;;;;4882170;29;20107;-69
2021/12/02 05:24:31;;;;;;;3.53;0.70;;;1.50;99.90;;;;;;4881822;29;20769;-68
2021/12/02 05:26:57;;;;;;;2.78;0.63;;;1.50;99.90;;;;;;4897061;29;20052;-69
2021/12/02 05:29:22;;;;;;;2.42;0.65;;;1.40;99.90;;;;;;4897787;29;20049;-68
2021/12/02 05:31:48;;;;;;;1.67;1.10;;;1.40;99.90;;;;;;4896406;29;20075;-68
2021/12/02 05:34:13;;;;;;;2.92;0.60;;;1.40;99.90;;;;;;4897226;29;20049;-69
2021/12/02 05:36:39;;;;;;;1.17;0.65;;;1.40;99.90;;;;;;4881700;29;20397;-68
2021/12/02 05:39:04;;;;;;;4.28;0.80;;;1.50;99.90;;;;;;4881297;29;20049;-67
2021/12/02 05:41:31;;;;;;;1.52;0.65;;;1.50;99.90;;;;;;4896935;29;20513;-66
2021/12/02 05:43:57;;;;;;;2.35;0.77;;;1.50;99.90;;;;;;4880890;29;20367;-67
2021/12/02 05:46:22;;;;;;;3.70;0.70;;;1.50;99.90;;;;;;4898119;29;20167;-67
2021/12/02 05:48:48;;;;;;;0.80;0.50;;;1.50;99.90;;;;;;4896496;29;20068;-69
2021/12/02 05:51:14;;;;;;;3.78;0.80;;;1.60;99.90;;;;;;4896459;29;20052;-67
2021/12/02 05:53:39;;;;;;;1.55;0.57;;;1.60;99.90;;;;;;4897162;29;20045;-68
2021/12/02 05:56:05;;;;;;;2.08;0.60;;;1.60;99.90;;;;;;4881215;29;20144;-68
2021/12/02 05:58:31;;;;;;;0.43;0.43;;;1.60;99.90;;;;;;4897859;29;20091;-69
2021/12/02 06:00:56;;;;;;;3.80;0.63;;;1.70;99.90;;;;;;4894859;29;20060;-67
2021/12/02 06:03:22;;;;;;;3.53;1.00;;;1.70;99.90;;;;;;4881026;29;20082;-68
2021/12/02 06:05:48;;;;;;;5.78;0.90;;;1.80;99.90;;;;;;4897245;29;20052;-66
2021/12/02 06:08:14;;;;;;;3.40;0.80;;;2.00;99.90;;;;;;4881058;29;20049;-70
2021/12/02 06:10:40;;;;;;;3.28;0.90;;;1.70;99.90;;;;;;4880632;29;20056;-70
2021/12/02 06:13:05;;;;;;;2.40;0.77;;;1.70;99.90;;;;;;4897632;29;20051;-69
2021/12/02 06:15:31;;;;;;;1.45;0.70;;;1.80;99.90;;;;;;4896832;29;20052;-70
2021/12/02 06:17:57;;;;;;;5.05;0.80;;;1.80;99.90;;;;;;4881053;29;20543;-69
2021/12/02 06:20:22;;;;;;;3.22;0.60;;;1.70;99.90;;;;;;4896049;29;20123;-66
2021/12/02 06:22:48;;;;;;;0.80;0.60;;;1.70;99.90;;;;;;4881022;29;20060;-68
2021/12/02 06:27:45;;;;;;;3.03;0.70;;;1.70;99.90;;;;;;4881029;29;20481;-69
2021/12/02 06:30:13;;;;;;;1.48;0.70;;;1.70;99.90;;;;;;4895271;29;20058;-70
2021/12/02 06:32:38;;;;;;;5.85;1.20;;;1.70;99.90;;;;;;4880683;29;20080;-69
2021/12/02 06:35:05;;;;;;;2.65;0.70;;;1.70;99.90;;;;;;4895718;29;20148;-69
2021/12/02 06:37:31;;;;;;;1.25;0.70;;;1.70;99.90;;;;;;4878166;29;20045;-68
2021/12/02 06:39:56;;;;;;;4.10;0.70;;;1.80;99.90;;;;;;4878988;29;20597;-68
2021/12/02 06:42:22;;;;;;;0.52;0.52;;;1.80;99.90;;;;;;4897581;29;20056;-68
2021/12/02 06:44:47;;;;;;;1.23;0.68;;;1.90;99.90;;;;;;4895687;29;20093;-68
2021/12/02 06:47:13;;;;;;;1.50;0.77;;;1.90;99.90;;;;;;4880456;29;20092;-66
2021/12/02 06:49:40;;;;;;;4.22;0.88;;;1.90;99.90;;;;;;4897249;29;20041;-68
2021/12/02 06:52:15;;;;;;;5.57;0.80;;;1.90;99.90;;;;;;4904149;29;20055;-68
2021/12/02 06:54:40;;;;;;;2.38;1.10;;;1.90;99.90;;;;;;4898728;29;20060;-68
2021/12/02 06:57:07;;;;;;;3.38;0.80;;;1.90;99.90;;;;;;4906350;29;20104;-66
2021/12/02 06:59:33;;;;;;;2.13;0.70;;;2.00;99.90;;;;;;4913202;29;20130;-68
2021/12/02 07:01:58;;;;;;;3.38;0.68;;;2.00;99.90;;;;;;4883123;29;20044;-67
2021/12/02 07:04:24;;;;;;;2.10;0.90;;;2.00;99.90;;;;;;4880069;29;20052;-68
2021/12/02 07:06:50;;;;;;;0.80;0.63;;;2.00;99.90;;;;;;4896467;29;20139;-69
2021/12/02 07:09:15;;;;;;;3.60;0.90;;;2.10;99.90;;;;;;4880057;29;20060;-68
2021/12/02 07:11:42;;;;;;;2.45;0.85;;;2.10;99.90;;;;;;4879826;29;20055;-68
2021/12/02 07:14:17;;;;;;;2.67;0.70;;;2.00;99.90;;;;;;4880689;29;20044;-66
2021/12/02 07:16:42;;;;;;;2.08;0.88;;;2.10;99.90;;;;;;4880595;29;20052;-69
2021/12/02 07:19:09;;;;;;;1.35;0.80;;;2.00;99.90;;;;;;4882998;29;20045;-68
2021/12/02 07:21:38;;;;;;;3.40;0.85;;;2.00;99.90;;;;;;4882857;29;20048;-68
2021/12/02 07:24:05;;;;;;;2.75;0.70;;;2.00;99.90;;;;;;4883817;29;20123;-69
2021/12/02 07:26:40;;;;;;;3.38;0.77;;;2.00;99.90;;;;;;4883685;29;20433;-66
2021/12/02 07:29:05;;;;;;;1.92;0.90;;;2.00;99.90;;;;;;4899680;29;20044;-67
2021/12/02 07:31:33;;;;;;;1.30;0.85;;;2.10;99.90;;;;;;4882816;29;20101;-68
2021/12/02 07:34:00;;;;;;;2.22;1.40;;;2.10;99.90;;;;;;4865230;29;20062;-69
2021/12/02 07:36:28;;;;;;;0.80;0.80;;;2.10;99.90;;;;;;4898086;29;20048;-67
2021/12/02 07:38:54;;;;;;;1.80;0.80;;;2.10;99.90;;;;;;4883659;29;20540;-68
2021/12/02 07:41:20;;;;;;;1.17;1.08;;;2.30;99.90;;;;;;4900339;29;20470;-68
2021/12/02 07:43:45;;;;;;;2.17;1.10;;;2.20;99.90;;;;;;4898785;29;20083;-68
2021/12/02 07:46:11;;;;;;;1.65;1.20;;;2.20;99.90;;;;;;4899070;29;20052;-68
2021/12/02 07:48:37;;;;;;;1.67;1.00;;;2.30;99.90;;;;;;4883277;29;20075;-68
2021/12/02 07:51:10;;;;;;;1.80;1.08;;;2.20;99.90;;;;;;4882768;29;20151;-68
2021/12/02 07:53:40;;;;;;;2.22;1.20;;;2.20;99.90;;;;;;4864865;29;20116;-67
2021/12/02 07:56:09;;;;;;;2.35;1.58;;;2.20;99.90;;;;;;4883398;29;20052;-67
2021/12/02 07:58:38;;;;;;;1.77;1.13;;;2.20;99.90;;;;;;4881605;29;20061;-68
2021/12/02 08:01:04;;;;;;;1.30;1.17;;;2.20;99.90;;;;;;4881521;29;20476;-71
2021/12/02 08:03:30;;;;;;;1.40;1.17;;;2.20;99.90;;;;;;4898490;29;20139;-69
2021/12/02 08:05:56;;;;;;;2.83;1.50;;;2.20;99.90;;;;;;4882756;29;20052;-67
2021/12/02 08:08:22;;;;;;;1.60;1.15;;;2.20;99.90;;;;;;4899159;29;20052;-68
2021/12/02 08:10:47;;;;;;;1.02;1.02;;;2.20;99.90;;;;;;4898256;29;20481;-66
2021/12/02 08:13:14;;;;;;;1.90;1.55;;;2.10;99.90;;;;;;4882950;29;20040;-67
2021/12/02 08:15:41;;;;;;;1.98;1.65;;;2.10;99.90;;;;;;4899060;29;20489;-67
2021/12/02 08:18:07;;;;;;;2.40;1.83;;;2.20;99.90;;;;;;4882985;29;20052;-68
2021/12/02 08:20:33;;;;;;;1.92;1.65;;;2.10;99.90;;;;;;4882314;29;20095;-69
2021/12/02 08:22:59;;;;;;;2.03;1.58;;;2.20;99.90;;;;;;4883048;29;20056;-68
2021/12/02 08:25:26;;;;;;;1.40;1.25;;;2.20;99.90;;;;;;4882627;29;20041;-67
2021/12/02 08:27:54;;;;;;;3.17;1.52;;;2.20;99.90;;;;;;4898414;29;20496;-67
2021/12/02 08:30:23;;;;;;;2.67;2.20;;;2.20;99.90;;;;;;4899363;29;20138;-67
2021/12/02 08:32:49;;;;;;;2.10;1.83;;;2.30;99.90;;;;;;4899757;29;20055;-67
2021/12/02 08:35:16;;;;;;;4.00;1.92;;;2.30;99.90;;;;;;4882016;29;20080;-67
2021/12/02 08:37:46;;;;;;;2.30;1.88;;;2.40;99.90;;;;;;4867192;29;20098;-68
2021/12/02 08:40:17;;;;;;;4.93;1.77;;;2.50;99.90;;;;;;4898906;29;20060;-67
2021/12/02 08:42:47;;;;;;;3.72;1.98;;;2.50;99.90;;;;;;4883040;29;20485;-69
2021/12/02 08:45:14;;;;;;;2.60;1.73;;;2.60;99.90;;;;;;4882588;29;20044;-69
2021/12/02 08:47:45;;;;;;;1.50;1.20;;;2.60;99.90;;;;;;4899152;29;20510;-67
2021/12/02 08:50:17;;;;;;;2.67;1.70;;;2.60;99.90;;;;;;4881858;29;20083;-67
2021/12/02 08:52:44;;;;;;;2.30;2.03;;;2.50;99.90;;;;;;4882553;29;20056;-68
2021/12/02 08:55:12;;;;;;;3.35;2.08;;;2.50;99.90;;;;;;4882307;29;20049;-68
2021/12/02 08:57:37;;;;;;;2.75;1.75;;;2.50;99.90;;;;;;4899289;29;20044;-69
2021/12/02 09:00:06;;;;;;;1.75;1.30;;;2.40;99.90;;;;;;4881359;29;20068;-68
2021/12/02 09:02:32;;;;;;;5.03;1.67;;;2.40;99.90;;;;;;4882393;29;20060;-67
2021/12/02 09:04:58;;;;;;;3.45;1.73;;;2.40;99.90;;;;;;4881485;29;20052;-68
2021/12/02 09:07:24;;;;;;;7.43;3.28;;;2.40;99.90;;;;;;4882862;29;20053;-68
2021/12/02 09:09:49;;;;;;;5.60;3.10;;;2.40;99.90;;;;;;4881989;29;20048;-68
2021/12/02 09:12:15;;;;;;;3.47;1.90;;;2.30;99.90;;;;;;4881866;29;20099;-66
2021/12/02 09:14:41;;;;;;;2.13;1.40;;;2.40;99.90;;;;;;4899832;29;20064;-69
2021/12/02 09:17:06;;;;;;;2.47;1.23;;;2.30;99.90;;;;;;4898696;29;20056;-69
2021/12/02 09:19:32;;;;;;;1.83;1.05;;;2.30;99.90;;;;;;4881611;29;20056;-67
2021/12/02 09:21:58;;;;;;;1.25;1.15;;;2.40;99.90;;;;;;4897045;29;20053;-66
2021/12/02 09:24:23;;;;;;;2.33;1.35;;;2.40;99.90;;;;;;4897100;29;20138;-68
2021/12/02 09:26:51;;;;;;;3.35;2.08;;;2.40;99.90;;;;;;4897499;29;20056;-66
2021/12/02 09:29:18;;;;;;;1.95;1.75;;;2.50;99.90;;;;;;4896922;29;20067;-67
2021/12/02 09:31:45;;;;;;;2.60;2.15;;;2.50;99.90;;;;;;4894962;29;20062;-69
2021/12/02 09:34:11;;;;;;;2.33;1.88;;;2.60;99.90;;;;;;4884036;29;20109;-66
2021/12/02 09:36:38;;;;;;;2.38;1.20;;;2.60;99.90;;;;;;4910680;29;20443;-67
2021/12/02 09:39:08;;;;;;;3.90;1.75;;;2.80;99.90;;;;;;4898461;29;20064;-67
2021/12/02 09:41:35;;;;;;;2.65;1.40;;;2.90;99.90;;;;;;4899634;29;20135;-69
2021/12/02 09:44:01;;;;;;;2.90;1.50;;;2.80;99.90;;;;;;4910313;29;20056;-66
2021/12/02 09:46:27;;;;;;;3.95;1.98;;;2.90;99.90;;;;;;4893631;29;20078;-68
2021/12/02 09:48:54;;;;;;;5.35;2.50;;;3.00;99.90;;;;;;4917118;29;20072;-66
2021/12/02 09:51:24;;;;;;;3.78;2.10;;;3.10;99.90;;;;;;4894861;29;20316;-66
2021/12/02 09:53:55;;;;;;;2.40;1.85;;;3.20;99.90;;;;;;4881460;29;20092;-68
2021/12/02 09:56:29;;;;;;;3.10;1.53;;;3.30;99.90;;;;;;4881655;29;20072;-70
2021/12/02 09:59:02;;;;;;;3.03;2.10;;;3.50;99.90;;;;;;4898447;29;20053;-67
2021/12/02 10:01:41;;;;;;;4.63;1.65;;;3.60;99.90;;;;;;4881345;29;20056;-67
2021/12/02 10:04:09;;;;;;;3.22;2.20;;;3.70;99.90;;;;;;4881554;29;20051;-67
2021/12/02 10:06:34;;;;;;;3.58;2.58;;;3.80;99.90;;;;;;4880316;29;20473;-67
2021/12/02 10:09:21;;;;;;;2.70;1.73;;;3.80;99.90;;;;;;4896826;29;20055;-66
2021/12/02 10:14:34;;;;;;;1.45;1.30;;;3.90;99.90;;;;;;4898066;29;20151;-68
2021/12/02 10:17:17;;;;;;;1.00;0.90;;;;;;;;;;4897690;29;20071;-67
2021/12/02 10:23:03;;;;;;;3.25;1.13;;;3.90;99.90;;;;;;4881324;29;20497;-69
2021/12/02 10:25:34;;;;;;;3.08;1.10;;;3.90;99.90;;;;;;4880860;29;20048;-70
2021/12/02 10:28:08;;;;;;;2.13;0.95;;;3.90;99.90;;;;;;4880498;29;20048;-71
2021/12/02 10:30:39;;;;;;;1.98;1.02;;;3.90;99.90;;;;;;4880511;29;20044;-70
2021/12/02 10:33:04;;;;;;;0.95;0.60;;;4.00;99.90;;;;;;4862517;29;20102;-68
2021/12/02 10:35:41;;;;;;;5.03;1.00;;;4.10;99.90;;;;;;4877336;29;20049;-69
2021/12/02 10:38:07;;;;;;;2.70;0.60;;;4.10;99.90;;;;;;4862794;29;20049;-70
2021/12/02 10:40:36;;;;;;;3.33;1.17;;;4.10;99.90;;;;;;4878943;29;20045;-70
2021/12/02 10:46:16;;;;;;;4.20;1.65;;;4.10;99.90;;;;;;4883774;29;20052;-72
2021/12/02 10:48:50;;;;;;;1.58;0.90;;;4.10;99.90;;;;;;4881406;29;20061;-69
2021/12/02 10:51:46;;;;;;;2.92;1.38;;;4.10;99.90;;;;;;4879984;29;20092;-70
2021/12/02 10:54:18;;;;;;;1.75;0.70;;;4.00;99.90;;;;;;4883842;29;20372;-68
2021/12/02 10:56:48;;;;;;;0.82;0.68;;;4.00;99.90;;;;;;4883840;29;20040;-71
2021/12/02 10:59:24;;;;;;;2.47;0.88;;;3.90;99.90;;;;;;4884142;29;20063;-69
2021/12/02 11:02:14;;;;;;;0.70;0.70;;;3.40;99.90;;;;;;4901518;29;20053;-73
2021/12/02 11:05:02;;;;;;;1.27;0.77;;;2.60;99.90;;;;;;4882564;29;20454;-72
2021/12/02 11:10:26;;;;;;;1.08;0.90;;;2.30;99.90;;;;;;4883275;29;20135;-72
2021/12/02 11:12:59;;;;;;;0.68;0.60;;;2.20;99.90;;;;;;4883398;29;20044;-70
2021/12/02 11:15:28;;;;;;;1.27;0.77;;;2.10;99.90;;;;;;4880359;29;20045;-70
2021/12/02 11:18:20;;;;;;;0.50;0.50;;;2.00;99.90;;;;;;4885068;29;20412;-71
2021/12/02 11:20:57;;;;;;;6.05;3.60;;;2.00;99.90;;;;;;4897021;29;20075;-71
2021/12/02 11:23:30;;;;;;;4.28;2.42;;;2.00;99.90;;;;;;4908727;29;20196;-72
2021/12/02 11:26:10;;;;;;;1.38;0.88;;;2.00;99.90;;;;;;4902626;29;20127;-71
2021/12/02 11:28:43;;;;;;;1.88;0.82;;;2.00;99.90;;;;;;4902539;29;20044;-72
2021/12/02 11:31:18;;;;;;;1.02;0.93;;;2.00;99.90;;;;;;4917722;29;20044;-71
2021/12/02 11:33:46;;;;;;;1.35;1.10;;;2.00;99.90;;;;;;4897313;29;20163;-71
2021/12/02 11:36:22;;;;;;;1.10;0.93;;;2.00;99.90;;;;;;4898819;29;20092;-71
2021/12/02 11:38:49;;;;;;;1.27;0.85;;;2.00;99.90;;;;;;4895597;29;20052;-71
2021/12/02 11:41:17;;;;;;;2.35;1.10;;;2.00;99.90;;;;;;4883542;29;20072;-70
2021/12/02 11:43:44;;;;;;;1.13;0.80;;;2.00;99.90;;;;;;4882950;29;20056;-70
2021/12/02 11:46:10;;;;;;;0.90;0.80;;;2.00;99.90;;;;;;4883452;29;20060;-71
2021/12/02 11:48:42;;;;;;;1.15;1.05;;;2.10;99.90;;;;;;4883707;29;20056;-68
2021/12/02 11:51:13;;;;;;;1.77;1.05;;;2.10;99.90;;;;;;4898352;29;20056;-69
2021/12/02 11:53:39;;;;;;;1.17;0.70;;;2.10;99.90;;;;;;4883216;29;20083;-69
2021/12/02 11:56:08;;;;;;;2.00;0.90;;;2.10;99.90;;;;;;4899447;29;20080;-71
2021/12/02 11:58:34;;;;;;;1.15;0.90;;;2.20;99.90;;;;;;4882744;29;20104;-68
2021/12/02 12:01:00;;;;;;;1.65;0.68;;;2.20;99.90;;;;;;4883411;29;20068;-68
2021/12/02 12:03:29;;;;;;;1.48;0.80;;;2.00;99.90;;;;;;4882937;29;20053;-71
2021/12/02 12:06:10;;;;;;;1.13;0.55;;;2.20;99.90;;;;;;4882965;29;20044;-68
2021/12/02 12:08:41;;;;;;;0.47;0.47;;;2.30;99.90;;;;;;4883940;29;20056;-70
2021/12/02 12:11:24;;;;;;;2.90;0.60;;;2.10;99.90;;;;;;4900252;29;20052;-71
2021/12/02 12:13:55;;;;;;;1.33;1.00;;;2.20;99.90;;;;;;4882139;29;20493;-72
2021/12/02 12:16:26;;;;;;;3.03;2.72;;;2.30;99.90;;;;;;4882887;29;20116;-70
2021/12/02 12:18:53;;;;;;;2.20;1.77;;;2.30;99.90;;;;;;4882768;29;20088;-69
2021/12/02 12:21:35;;;;;;;2.05;0.88;;;2.30;99.90;;;;;;4881712;29;20091;-70
2021/12/02 12:24:01;;;;;;;2.97;2.65;;;2.40;99.90;;;;;;4898008;29;20064;-70
2021/12/02 12:26:32;;;;;;;4.47;3.35;;;2.40;99.90;;;;;;4882520;29;20052;-69
2021/12/02 12:29:04;;;;;;;21.23;16.00;;;2.50;99.90;;;;;;4899641;29;20150;-69
2021/12/02 12:31:35;;;;;;;28.88;20.33;;;2.60;99.90;;;;;;4882600;29;20067;-68
2021/12/02 12:34:01;;;;;;;15.00;11.27;;;2.60;99.90;;;;;;4898437;29;20091;-68
2021/12/02 12:36:45;;;;;;;33.85;25.55;;;2.60;99.90;;;;;;4890832;29;20045;-68
2021/12/02 12:39:19;;;;;;;3.90;1.70;;;2.60;99.90;;;;;;4881848;29;20136;-67
2021/12/02 12:42:16;;;;;;;3.28;2.15;;;2.60;99.90;;;;;;4883260;29;20407;-70
2021/12/02 12:44:51;;;;;;;3.20;2.08;;;2.60;99.90;;;;;;4881876;29;20068;-70
2021/12/02 12:47:17;;;;;;;22.33;17.20;;;2.50;99.90;;;;;;4897414;29;20060;-66
2021/12/02 12:49:45;;;;;;;22.95;19.77;;;2.50;99.90;;;;;;4896554;29;20067;-66
2021/12/02 12:52:19;;;;;;;21.23;17.27;;;2.50;99.90;;;;;;4882571;29;20048;-67
2021/12/02 12:55:13;;;;;;;24.85;20.10;;;2.40;99.90;;;;;;4882616;29;20412;-65
2021/12/02 12:58:16;;;;;;;21.02;17.10;;;2.40;99.90;;;;;;4882705;29;20532;-65
2021/12/02 13:00:44;;;;;;;;;;;2.40;99.90;;;;;;4882451;29;20079;-67
2021/12/02 13:03:19;;;;;;;1.77;1.08;;;2.40;99.90;;;;;;4882472;29;19930;-66
2021/12/02 13:05:55;;;;;;;46.88;37.10;;;2.50;99.90;;;;;;4882050;29;20052;-66
2021/12/02 13:08:40;;;;;;;18.05;14.20;;;2.50;99.90;;;;;;4897909;29;20468;-66
2021/12/02 13:11:15;;;;;;;80.50;51.15;;;2.50;99.90;;;;;;4898617;29;20082;-66
2021/12/02 13:13:41;;;;;;;36.58;25.92;;;2.60;99.90;;;;;;4882186;29;20163;-66
2021/12/02 13:16:30;;;;;;;3.35;2.30;;;2.60;99.90;;;;;;4880987;29;20095;-65
2021/12/02 13:18:59;;;;;;;4.20;3.00;;;2.70;99.90;;;;;;4881615;29;20060;-66
2021/12/02 13:21:28;;;;;;;16.40;12.23;;;2.80;99.90;;;;;;4881109;29;20398;-66
2021/12/02 13:24:14;;;;;;;1.10;1.00;;;2.80;99.90;;;;;;4896779;29;20056;-68
2021/12/02 13:26:55;;;;;;;2.17;1.17;;;2.70;99.90;;;;;;4898784;29;20059;-66
2021/12/02 13:29:23;;;;;;;3.30;2.25;;;2.60;99.90;;;;;;4897072;29;20535;-66
2021/12/02 13:31:52;;;;;;;1.70;1.50;;;2.60;99.90;;;;;;4898881;29;20494;-66
2021/12/02 13:34:19;;;;;;;1.50;1.40;;;2.50;99.90;;;;;;4880446;29;20056;-66
2021/12/02 13:36:53;;;;;;;4.88;4.32;;;2.60;99.90;;;;;;4880092;29;20057;-67
2021/12/02 13:39:40;;;;;;;1.92;1.63;;;2.60;99.90;;;;;;4882408;29;20091;-67
2021/12/02 13:42:08;;;;;;;1.40;1.30;;;2.60;99.90;;;;;;4901818;29;20382;-67